Burbank, California
Current Conditions -  °F | °C
As of 7:53 PM on Wednesday 22 Oct 2014 (Local Time) from KBUR Reporting Station
Clear Clear  
Wind Chill: 73°   Ceiling: Unl
Heat Index: 73°   Visibility: 10mi
Dew Point: 54°   Wind: 5mph
Humidity: 51%   Direction: 100°E
Pressure: 29.94"   Gusts: NA
Location:  34.18°N, 118.3°W
Report Text: KBUR 230253Z 10004KT 10SM CLR 23/12 A2994 RMK AO2 SLP127 T02280122 53017 $
Loading
Personal Weather Stations






























Interactive Weather Map New forecast layout! Learn more

10-Day Weather Forecast

Advertisements
Track Severe Weather on mobile